Cumberland Gap, Tennessee
Current Conditions -  °F | °C
As of 3:35 AM on Friday 28 Nov 2014 (Local Time) from KI35 Reporting Station
Overcast Overcast  
Wind Chill: -2°   Ceiling: 3100
Heat Index: -2°   Visibility: 10mi
Dew Point: -7°   Wind: 0mph
Humidity: 69%   Direction: NA
Pressure: 30.34"   Gusts: NA
Location:  36.6°N, 83.67°W
Report Text: KI35 280835Z AUTO 00000KT 10SM OVC031 M02/M07 A3034 RMK AO1
Loading
Personal Weather Stations






























Interactive Weather Map New forecast layout! Learn more

10-Day Weather Forecast

Advertisements
Track Severe Weather on mobile